Campbellton, Canada
Current Conditions -  °F | °C
As of 2:44 PM on Thursday 23 Oct 2014 (Local Time) from CZBF Reporting Station
Overcast Overcast  
Wind Chill: 36°   Ceiling: 1600
Heat Index: 43°   Visibility: 12mi
Dew Point: 39°   Wind: 13mph
Humidity: 87%   Direction: 60°ENE
Pressure: 30.21"   Gusts: 23mph
Location:  48°N, 66.33°W
Report Text: CZBF 231744Z 06011G20KT 12SM OVC016 06/04 A3021 RMK SC8 SLP231
Loading
Personal Weather Stations






























Interactive Weather Map
Tropical Storm Tracking
New forecast layout! Learn more

10-Day Weather Forecast

Advertisements
Track Severe Weather on mobile